Fairplay, Colorado
Current Conditions -  °F | °C
As of 4:53 PM on Thursday 18 Dec 2014 (Local Time) from KLXV Reporting Station
Overcast Overcast  
Wind Chill: 10°   Ceiling: 6000
Heat Index: 19°   Visibility: 10mi
Dew Point: 12°   Wind: 7mph
Humidity: 74%   Direction: 340°NNW
Pressure: 30.04"   Gusts: NA
Location:  39.22°N, 106°W
Report Text: KLXV 182353Z AUTO 34006KT 10SM OVC060 M07/M11 A3004 RMK AO2 SLP180 T10721111 11028 21072 53009
Loading
Personal Weather Stations






























Interactive Weather Map New forecast layout! Learn more

10-Day Weather Forecast

Advertisements
Track Severe Weather on mobile